sensor_id;sensor_type;location;lat;lon;timestamp;pressure;altitude;pressure_sealevel;temperature;humidity
57668;BME280;43499;52.366;12.912;2022-07-15T00:00:36;101439.19;;;14.22;62.50
57668;BME280;43499;52.366;12.912;2022-07-15T00:01:38;101436.78;;;14.25;62.59
57668;BME280;43499;52.366;12.912;2022-07-15T00:02:39;101436.69;;;14.23;62.58
57668;BME280;43499;52.366;12.912;2022-07-15T00:03:41;101432.09;;;14.21;62.79
57668;BME280;43499;52.366;12.912;2022-07-15T00:04:42;101433.72;;;14.30;62.65
57668;BME280;43499;52.366;12.912;2022-07-15T00:05:44;101437.59;;;14.24;62.86
57668;BME280;43499;52.366;12.912;2022-07-15T00:06:46;101431.06;;;14.30;62.46
57668;BME280;43499;52.366;12.912;2022-07-15T00:07:48;101436.34;;;14.30;62.79
57668;BME280;43499;52.366;12.912;2022-07-15T00:08:49;101436.50;;;14.32;62.65
57668;BME280;43499;52.366;12.912;2022-07-15T00:09:54;101432.09;;;14.21;62.87
57668;BME280;43499;52.366;12.912;2022-07-15T00:11:13;101443.94;;;14.26;63.20
57668;BME280;43499;52.366;12.912;2022-07-15T00:12:18;101435.09;;;14.25;62.92
57668;BME280;43499;52.366;12.912;2022-07-15T00:13:24;101446.31;;;14.23;63.45
57668;BME280;43499;52.366;12.912;2022-07-15T00:14:27;101437.84;;;14.27;63.26
57668;BME280;43499;52.366;12.912;2022-07-15T00:15:30;101433.00;;;14.21;63.49
57668;BME280;43499;52.366;12.912;2022-07-15T00:16:34;101446.13;;;14.19;63.59
57668;BME280;43499;52.366;12.912;2022-07-15T00:17:35;101444.47;;;14.22;63.61
57668;BME280;43499;52.366;12.912;2022-07-15T00:18:38;101439.78;;;14.17;63.75
57668;BME280;43499;52.366;12.912;2022-07-15T00:19:39;101444.81;;;14.14;63.50
57668;BME280;43499;52.366;12.912;2022-07-15T00:20:41;101444.72;;;14.13;64.12
57668;BME280;43499;52.366;12.912;2022-07-15T00:21:43;101446.69;;;14.27;64.06
57668;BME280;43499;52.366;12.912;2022-07-15T00:22:45;101444.47;;;14.22;64.08
57668;BME280;43499;52.366;12.912;2022-07-15T00:23:48;101447.03;;;14.20;64.12
57668;BME280;43499;52.366;12.912;2022-07-15T00:24:49;101448.78;;;14.31;63.66
57668;BME280;43499;52.366;12.912;2022-07-15T00:25:52;101445.53;;;14.24;64.14
57668;BME280;43499;52.366;12.912;2022-07-15T00:26:53;101449.78;;;14.22;64.34
57668;BME280;43499;52.366;12.912;2022-07-15T00:27:57;101439.50;;;14.02;65.03
57668;BME280;43499;52.366;12.912;2022-07-15T00:29:00;101444.41;;;13.98;64.77
57668;BME280;43499;52.366;12.912;2022-07-15T00:30:04;101446.69;;;13.93;65.29
57668;BME280;43499;52.366;12.912;2022-07-15T00:31:11;101440.84;;;13.75;65.80
57668;BME280;43499;52.366;12.912;2022-07-15T00:32:17;101444.47;;;13.87;65.61
57668;BME280;43499;52.366;12.912;2022-07-15T00:33:18;101443.13;;;13.70;65.86
57668;BME280;43499;52.366;12.912;2022-07-15T00:34:20;101443.38;;;13.73;66.60
57668;BME280;43499;52.366;12.912;2022-07-15T00:35:22;101450.16;;;13.70;66.28
57668;BME280;43499;52.366;12.912;2022-07-15T00:36:26;101448.31;;;13.69;66.87
57668;BME280;43499;52.366;12.912;2022-07-15T00:37:28;101452.25;;;13.74;66.60
57668;BME280;43499;52.366;12.912;2022-07-15T00:38:33;101448.63;;;13.62;66.79
57668;BME280;43499;52.366;12.912;2022-07-15T00:39:35;101445.03;;;13.61;67.04
57668;BME280;43499;52.366;12.912;2022-07-15T00:40:41;101448.28;;;13.47;67.46
57668;BME280;43499;52.366;12.912;2022-07-15T00:41:43;101446.63;;;13.59;67.40
57668;BME280;43499;52.366;12.912;2022-07-15T00:42:46;101446.47;;;13.68;67.11
57668;BME280;43499;52.366;12.912;2022-07-15T00:43:47;101458.44;;;13.75;66.78
57668;BME280;43499;52.366;12.912;2022-07-15T00:44:49;101457.34;;;13.61;67.55
57668;BME280;43499;52.366;12.912;2022-07-15T00:45:50;101455.34;;;13.58;67.17
57668;BME280;43499;52.366;12.912;2022-07-15T00:46:54;101448.13;;;13.55;67.90
57668;BME280;43499;52.366;12.912;2022-07-15T00:47:56;101456.28;;;13.58;67.81
57668;BME280;43499;52.366;12.912;2022-07-15T00:48:59;101445.91;;;13.50;67.46
57668;BME280;43499;52.366;12.912;2022-07-15T00:50:04;101460.78;;;13.60;68.03
57668;BME280;43499;52.366;12.912;2022-07-15T00:51:08;101444.72;;;13.46;67.92
57668;BME280;43499;52.366;12.912;2022-07-15T00:52:12;101449.75;;;13.43;67.90
57668;BME280;43499;52.366;12.912;2022-07-15T00:53:17;101449.47;;;13.50;67.89
57668;BME280;43499;52.366;12.912;2022-07-15T00:54:23;101453.66;;;13.58;67.74
57668;BME280;43499;52.366;12.912;2022-07-15T00:55:24;101449.00;;;13.66;67.29
57668;BME280;43499;52.366;12.912;2022-07-15T00:56:28;101460.91;;;13.61;67.61
57668;BME280;43499;52.366;12.912;2022-07-15T00:57:32;101450.50;;;13.52;68.00
57668;BME280;43499;52.366;12.912;2022-07-15T00:58:40;101449.47;;;13.50;68.22
57668;BME280;43499;52.366;12.912;2022-07-15T00:59:46;101448.97;;;13.44;68.12
57668;BME280;43499;52.366;12.912;2022-07-15T01:00:49;101456.47;;;13.50;68.56
57668;BME280;43499;52.366;12.912;2022-07-15T01:01:52;101444.56;;;13.55;67.99
57668;BME280;43499;52.366;12.912;2022-07-15T01:02:58;101457.19;;;13.59;67.89
57668;BME280;43499;52.366;12.912;2022-07-15T01:04:02;101461.25;;;13.44;67.96
57668;BME280;43499;52.366;12.912;2022-07-15T01:05:06;101458.19;;;13.49;68.22
57668;BME280;43499;52.366;12.912;2022-07-15T01:06:08;101451.72;;;13.35;69.02
57668;BME280;43499;52.366;12.912;2022-07-15T01:07:11;101454.94;;;13.41;68.29
57668;BME280;43499;52.366;12.912;2022-07-15T01:08:17;101452.56;;;13.34;68.86
57668;BME280;43499;52.366;12.912;2022-07-15T01:09:19;101450.03;;;13.36;68.92
57668;BME280;43499;52.366;12.912;2022-07-15T01:10:23;101459.44;;;13.32;68.78
57668;BME280;43499;52.366;12.912;2022-07-15T01:11:35;101444.13;;;13.28;68.93
57668;BME280;43499;52.366;12.912;2022-07-15T01:12:37;101461.28;;;13.33;69.07
57668;BME280;43499;52.366;12.912;2022-07-15T01:13:41;101454.78;;;13.30;69.66
57668;BME280;43499;52.366;12.912;2022-07-15T01:14:42;101461.91;;;13.41;69.13
57668;BME280;43499;52.366;12.912;2022-07-15T01:15:44;101447.41;;;13.36;69.05
57668;BME280;43499;52.366;12.912;2022-07-15T01:16:49;101451.50;;;13.32;69.02
57668;BME280;43499;52.366;12.912;2022-07-15T01:17:51;101463.50;;;13.39;68.77
57668;BME280;43499;52.366;12.912;2022-07-15T01:18:54;101462.44;;;13.37;68.76
57668;BME280;43499;52.366;12.912;2022-07-15T01:20:00;101468.16;;;13.31;68.93
57668;BME280;43499;52.366;12.912;2022-07-15T01:21:02;101457.25;;;13.16;69.63
57668;BME280;43499;52.366;12.912;2022-07-15T01:22:05;101459.91;;;13.16;69.50
57668;BME280;43499;52.366;12.912;2022-07-15T01:23:06;101456.31;;;13.16;69.50
57668;BME280;43499;52.366;12.912;2022-07-15T01:24:09;101460.13;;;13.19;70.07
57668;BME280;43499;52.366;12.912;2022-07-15T01:25:11;101459.97;;;13.28;69.72
57668;BME280;43499;52.366;12.912;2022-07-15T01:26:13;101461.28;;;13.33;69.54
57668;BME280;43499;52.366;12.912;2022-07-15T01:27:14;101462.13;;;13.22;69.86
57668;BME280;43499;52.366;12.912;2022-07-15T01:28:18;101449.19;;;13.15;69.61
57668;BME280;43499;52.366;12.912;2022-07-15T01:29:22;101448.50;;;13.17;69.58
57668;BME280;43499;52.366;12.912;2022-07-15T01:30:27;101452.72;;;13.25;69.75
57668;BME280;43499;52.366;12.912;2022-07-15T01:31:30;101451.63;;;13.34;69.69
57668;BME280;43499;52.366;12.912;2022-07-15T01:32:32;101463.13;;;13.34;69.16
57668;BME280;43499;52.366;12.912;2022-07-15T01:33:33;101464.69;;;13.42;69.45
57668;BME280;43499;52.366;12.912;2022-07-15T01:34:35;101461.81;;;13.29;69.71
57668;BME280;43499;52.366;12.912;2022-07-15T01:35:36;101464.59;;;13.20;69.50
57668;BME280;43499;52.366;12.912;2022-07-15T01:36:41;101460.75;;;13.27;69.98
57668;BME280;43499;52.366;12.912;2022-07-15T01:37:44;101461.22;;;13.11;70.09
57668;BME280;43499;52.366;12.912;2022-07-15T01:38:54;101455.53;;;13.17;69.91
57668;BME280;43499;52.366;12.912;2022-07-15T01:39:55;101463.97;;;13.23;69.91
57668;BME280;43499;52.366;12.912;2022-07-15T01:40:58;101462.13;;;13.22;70.44
57668;BME280;43499;52.366;12.912;2022-07-15T01:42:01;101465.34;;;13.30;69.94
57668;BME280;43499;52.366;12.912;2022-07-15T01:43:03;101466.41;;;13.32;70.12
57668;BME280;43499;52.366;12.912;2022-07-15T01:44:04;101465.63;;;13.33;69.50
57668;BME280;43499;52.366;12.912;2022-07-15T01:45:08;101474.03;;;13.06;70.50
57668;BME280;43499;52.366;12.912;2022-07-15T01:46:09;101472.59;;;13.00;71.14
57668;BME280;43499;52.366;12.912;2022-07-15T01:47:14;101466.69;;;12.92;71.01
57668;BME280;43499;52.366;12.912;2022-07-15T01:48:16;101469.59;;;12.95;71.04
57668;BME280;43499;52.366;12.912;2022-07-15T01:49:35;101472.72;;;13.01;71.31
57668;BME280;43499;52.366;12.912;2022-07-15T01:50:37;101468.63;;;12.94;71.22
57668;BME280;43499;52.366;12.912;2022-07-15T01:51:42;101463.78;;;12.99;71.06
57668;BME280;43499;52.366;12.912;2022-07-15T01:52:44;101459.41;;;13.00;71.03
57668;BME280;43499;52.366;12.912;2022-07-15T01:53:46;101466.19;;;12.86;71.70
57668;BME280;43499;52.366;12.912;2022-07-15T01:54:47;101466.03;;;12.84;71.66
57668;BME280;43499;52.366;12.912;2022-07-15T01:55:51;101467.63;;;12.92;71.67
57668;BME280;43499;52.366;12.912;2022-07-15T01:56:59;101461.97;;;12.88;71.86
57668;BME280;43499;52.366;12.912;2022-07-15T01:58:01;101457.16;;;13.04;71.48
57668;BME280;43499;52.366;12.912;2022-07-15T01:59:02;101449.75;;;13.10;71.02
57668;BME280;43499;52.366;12.912;2022-07-15T02:00:06;101450.81;;;13.02;71.24
57668;BME280;43499;52.366;12.912;2022-07-15T02:01:09;101458.50;;;12.99;71.75
57668;BME280;43499;52.366;12.912;2022-07-15T02:02:11;101461.53;;;12.83;71.97
57668;BME280;43499;52.366;12.912;2022-07-15T02:03:13;101456.78;;;12.89;71.98
57668;BME280;43499;52.366;12.912;2022-07-15T02:04:14;101456.91;;;12.91;71.41
57668;BME280;43499;52.366;12.912;2022-07-15T02:05:18;101453.88;;;12.96;71.47
57668;BME280;43499;52.366;12.912;2022-07-15T02:06:22;101465.75;;;13.02;71.62
57668;BME280;43499;52.366;12.912;2022-07-15T02:07:31;101462.97;;;12.90;71.54
57668;BME280;43499;52.366;12.912;2022-07-15T02:08:43;101450.38;;;12.75;72.42
57668;BME280;43499;52.366;12.912;2022-07-15T02:09:44;101453.91;;;12.86;72.15
57668;BME280;43499;52.366;12.912;2022-07-15T02:10:48;101466.16;;;12.96;71.56
57668;BME280;43499;52.366;12.912;2022-07-15T02:11:50;101455.03;;;13.00;71.76
57668;BME280;43499;52.366;12.912;2022-07-15T02:12:55;101451.75;;;13.03;71.21
57668;BME280;43499;52.366;12.912;2022-07-15T02:13:57;101469.44;;;13.04;71.25
57668;BME280;43499;52.366;12.912;2022-07-15T02:15:01;101458.72;;;13.02;71.35
57668;BME280;43499;52.366;12.912;2022-07-15T02:16:03;101451.22;;;12.96;70.86
57668;BME280;43499;52.366;12.912;2022-07-15T02:17:07;101461.13;;;12.99;71.52
57668;BME280;43499;52.366;12.912;2022-07-15T02:18:09;101460.47;;;13.02;71.13
57668;BME280;43499;52.366;12.912;2022-07-15T02:19:12;101460.09;;;12.97;71.15
57668;BME280;43499;52.366;12.912;2022-07-15T02:20:13;101455.31;;;12.93;70.81
57668;BME280;43499;52.366;12.912;2022-07-15T02:21:15;101457.16;;;13.04;70.58
57668;BME280;43499;52.366;12.912;2022-07-15T02:22:18;101452.53;;;13.02;70.78
57668;BME280;43499;52.366;12.912;2022-07-15T02:23:21;101470.47;;;13.06;71.24
57668;BME280;43499;52.366;12.912;2022-07-15T02:24:22;101463.25;;;12.93;71.01
57668;BME280;43499;52.366;12.912;2022-07-15T02:25:25;101482.91;;;12.86;71.35
57668;BME280;43499;52.366;12.912;2022-07-15T02:26:34;101458.75;;;12.92;71.12
57668;BME280;43499;52.366;12.912;2022-07-15T02:27:39;101464.72;;;12.89;71.38
57668;BME280;43499;52.366;12.912;2022-07-15T02:28:43;101464.72;;;12.89;70.96
57668;BME280;43499;52.366;12.912;2022-07-15T02:29:47;101477.13;;;12.90;71.64
57668;BME280;43499;52.366;12.912;2022-07-15T02:30:49;101479.59;;;12.89;71.83
57668;BME280;43499;52.366;12.912;2022-07-15T02:31:53;101473.31;;;12.87;71.83
57668;BME280;43499;52.366;12.912;2022-07-15T02:32:54;101471.16;;;12.93;71.37
57668;BME280;43499;52.366;12.912;2022-07-15T02:33:59;101476.84;;;12.87;71.06
57668;BME280;43499;52.366;12.912;2022-07-15T02:35:00;101470.50;;;12.95;71.38
57668;BME280;43499;52.366;12.912;2022-07-15T02:36:02;101467.22;;;12.98;71.14
57668;BME280;43499;52.366;12.912;2022-07-15T02:37:06;101474.06;;;12.96;71.36
57668;BME280;43499;52.366;12.912;2022-07-15T02:38:08;101474.59;;;12.92;71.34
57668;BME280;43499;52.366;12.912;2022-07-15T02:39:16;101475.97;;;12.76;72.00
57668;BME280;43499;52.366;12.912;2022-07-15T02:40:22;101475.19;;;12.57;72.30
57668;BME280;43499;52.366;12.912;2022-07-15T02:41:27;101473.84;;;12.72;72.13
57668;BME280;43499;52.366;12.912;2022-07-15T02:42:29;101482.16;;;12.77;71.75
57668;BME280;43499;52.366;12.912;2022-07-15T02:43:33;101471.63;;;12.67;71.93
57668;BME280;43499;52.366;12.912;2022-07-15T02:44:36;101484.13;;;12.69;72.33
57668;BME280;43499;52.366;12.912;2022-07-15T02:45:38;101477.56;;;12.64;72.60
57668;BME280;43499;52.366;12.912;2022-07-15T02:46:41;101482.97;;;12.65;72.73
57668;BME280;43499;52.366;12.912;2022-07-15T02:47:43;101481.22;;;12.66;72.10
57668;BME280;43499;52.366;12.912;2022-07-15T02:48:45;101479.66;;;12.68;72.04
57668;BME280;43499;52.366;12.912;2022-07-15T02:49:47;101480.22;;;12.54;72.82
57668;BME280;43499;52.366;12.912;2022-07-15T02:50:51;101476.66;;;12.43;72.87
57668;BME280;43499;52.366;12.912;2022-07-15T02:51:52;101467.25;;;12.57;72.53
57668;BME280;43499;52.366;12.912;2022-07-15T02:52:55;101488.91;;;12.63;72.66
57668;BME280;43499;52.366;12.912;2022-07-15T02:53:56;101482.56;;;12.71;72.94
57668;BME280;43499;52.366;12.912;2022-07-15T02:55:03;101494.81;;;12.81;72.68
57668;BME280;43499;52.366;12.912;2022-07-15T02:56:05;101491.63;;;12.75;72.60
57668;BME280;43499;52.366;12.912;2022-07-15T02:57:08;101482.16;;;12.77;72.68
57668;BME280;43499;52.366;12.912;2022-07-15T02:58:09;101491.78;;;12.76;72.36
57668;BME280;43499;52.366;12.912;2022-07-15T02:59:11;101491.53;;;12.73;73.15
57668;BME280;43499;52.366;12.912;2022-07-15T03:00:14;101495.59;;;12.80;72.19
57668;BME280;43499;52.366;12.912;2022-07-15T03:01:18;101494.66;;;12.79;72.80
57668;BME280;43499;52.366;12.912;2022-07-15T03:02:19;101491.63;;;12.85;72.40
57668;BME280;43499;52.366;12.912;2022-07-15T03:03:21;101492.31;;;12.72;72.04
57668;BME280;43499;52.366;12.912;2022-07-15T03:04:22;101480.06;;;12.52;72.81
57668;BME280;43499;52.366;12.912;2022-07-15T03:05:24;101496.44;;;12.58;72.88
57668;BME280;43499;52.366;12.912;2022-07-15T03:06:25;101492.06;;;12.59;73.25
57668;BME280;43499;52.366;12.912;2022-07-15T03:07:27;101491.25;;;12.70;72.90
57668;BME280;43499;52.366;12.912;2022-07-15T03:08:28;101498.88;;;12.77;72.25
57668;BME280;43499;52.366;12.912;2022-07-15T03:09:31;101505.75;;;12.86;72.56
57668;BME280;43499;52.366;12.912;2022-07-15T03:10:33;101502.47;;;12.68;72.94
57668;BME280;43499;52.366;12.912;2022-07-15T03:11:35;101507.63;;;12.76;72.54
57668;BME280;43499;52.366;12.912;2022-07-15T03:12:37;101509.84;;;12.61;73.01
57668;BME280;43499;52.366;12.912;2022-07-15T03:13:39;101508.66;;;12.58;73.49
57668;BME280;43499;52.366;12.912;2022-07-15T03:14:43;101505.25;;;12.59;73.13
57668;BME280;43499;52.366;12.912;2022-07-15T03:15:49;101495.50;;;12.47;73.80
57668;BME280;43499;52.366;12.912;2022-07-15T03:16:52;101503.28;;;12.46;73.80
57668;BME280;43499;52.366;12.912;2022-07-15T03:17:55;101499.31;;;12.41;74.04
57668;BME280;43499;52.366;12.912;2022-07-15T03:18:57;101508.00;;;12.50;73.85
57668;BME280;43499;52.366;12.912;2022-07-15T03:19:58;101511.19;;;12.46;73.92
57668;BME280;43499;52.366;12.912;2022-07-15T03:21:00;101518.16;;;12.45;74.17
57668;BME280;43499;52.366;12.912;2022-07-15T03:22:04;101515.00;;;12.49;74.00
57668;BME280;43499;52.366;12.912;2022-07-15T03:23:09;101497.63;;;12.41;73.76
57668;BME280;43499;52.366;12.912;2022-07-15T03:24:10;101508.28;;;12.43;74.14
57668;BME280;43499;52.366;12.912;2022-07-15T03:25:14;101519.78;;;12.54;73.71
57668;BME280;43499;52.366;12.912;2022-07-15T03:26:16;101516.75;;;12.59;73.61
57668;BME280;43499;52.366;12.912;2022-07-15T03:27:21;101512.75;;;12.54;73.78
57668;BME280;43499;52.366;12.912;2022-07-15T03:28:22;101519.88;;;12.55;74.21
57668;BME280;43499;52.366;12.912;2022-07-15T03:29:24;101514.34;;;12.52;73.93
57668;BME280;43499;52.366;12.912;2022-07-15T03:30:25;101519.88;;;12.55;74.35
57668;BME280;43499;52.366;12.912;2022-07-15T03:31:27;101511.44;;;12.49;74.45
57668;BME280;43499;52.366;12.912;2022-07-15T03:32:32;101508.56;;;12.36;74.29
57668;BME280;43499;52.366;12.912;2022-07-15T03:33:35;101518.16;;;12.56;74.49
57668;BME280;43499;52.366;12.912;2022-07-15T03:34:42;101509.06;;;12.52;74.47
57668;BME280;43499;52.366;12.912;2022-07-15T03:35:44;101512.63;;;12.63;73.81
57668;BME280;43499;52.366;12.912;2022-07-15T03:36:47;101522.41;;;12.74;74.13
57668;BME280;43499;52.366;12.912;2022-07-15T03:37:49;101529.75;;;12.78;73.37
57668;BME280;43499;52.366;12.912;2022-07-15T03:38:50;101523.81;;;12.91;72.90
57668;BME280;43499;52.366;12.912;2022-07-15T03:39:52;101519.44;;;12.92;73.16
57668;BME280;43499;52.366;12.912;2022-07-15T03:40:53;101522.25;;;12.93;73.27
57668;BME280;43499;52.366;12.912;2022-07-15T03:41:56;101521.97;;;12.90;72.71
57668;BME280;43499;52.366;12.912;2022-07-15T03:42:57;101528.03;;;12.89;72.90
57668;BME280;43499;52.366;12.912;2022-07-15T03:44:00;101523.97;;;12.72;73.33
57668;BME280;43499;52.366;12.912;2022-07-15T03:45:02;101523.28;;;12.85;73.41
57668;BME280;43499;52.366;12.912;2022-07-15T03:46:04;101530.56;;;12.88;72.88
57668;BME280;43499;52.366;12.912;2022-07-15T03:47:05;101530.13;;;12.83;73.11
57668;BME280;43499;52.366;12.912;2022-07-15T03:48:07;101521.97;;;12.90;73.39
57668;BME280;43499;52.366;12.912;2022-07-15T03:49:09;101530.78;;;12.91;72.86
57668;BME280;43499;52.366;12.912;2022-07-15T03:50:10;101536.63;;;12.97;73.05
57668;BME280;43499;52.366;12.912;2022-07-15T03:51:12;101533.19;;;12.98;72.83
57668;BME280;43499;52.366;12.912;2022-07-15T03:52:13;101537.53;;;12.98;72.92
57668;BME280;43499;52.366;12.912;2022-07-15T03:53:15;101522.06;;;13.02;72.50
57668;BME280;43499;52.366;12.912;2022-07-15T03:54:16;101533.00;;;13.07;72.29
57668;BME280;43499;52.366;12.912;2022-07-15T03:55:18;101527.34;;;13.02;72.65
57668;BME280;43499;52.366;12.912;2022-07-15T03:56:19;101535.41;;;12.83;73.51
57668;BME280;43499;52.366;12.912;2022-07-15T03:57:22;101529.59;;;12.98;72.98
57668;BME280;43499;52.366;12.912;2022-07-15T03:58:25;101533.03;;;12.96;73.19
57668;BME280;43499;52.366;12.912;2022-07-15T03:59:27;101532.66;;;12.92;73.16
57668;BME280;43499;52.366;12.912;2022-07-15T04:00:28;101534.47;;;13.03;72.86
57668;BME280;43499;52.366;12.912;2022-07-15T04:01:30;101535.00;;;13.09;72.87
57668;BME280;43499;52.366;12.912;2022-07-15T04:02:31;101533.50;;;13.23;72.13
57668;BME280;43499;52.366;12.912;2022-07-15T04:03:33;101532.03;;;13.27;71.56
57668;BME280;43499;52.366;12.912;2022-07-15T04:04:34;101539.28;;;13.30;71.67
57668;BME280;43499;52.366;12.912;2022-07-15T04:05:36;101527.28;;;13.33;71.46
57668;BME280;43499;52.366;12.912;2022-07-15T04:06:39;101536.75;;;13.52;70.96
57668;BME280;43499;52.366;12.912;2022-07-15T04:07:40;101536.16;;;13.66;70.69
57668;BME280;43499;52.366;12.912;2022-07-15T04:08:42;101531.75;;;13.77;69.81
57668;BME280;43499;52.366;12.912;2022-07-15T04:09:44;101532.25;;;13.83;69.77
57668;BME280;43499;52.366;12.912;2022-07-15T04:10:45;101536.31;;;13.90;69.92
57668;BME280;43499;52.366;12.912;2022-07-15T04:11:47;101532.03;;;14.02;68.87
57668;BME280;43499;52.366;12.912;2022-07-15T04:12:49;101538.41;;;14.16;68.46
57668;BME280;43499;52.366;12.912;2022-07-15T04:13:51;101533.94;;;14.27;68.16
57668;BME280;43499;52.366;12.912;2022-07-15T04:14:52;101538.81;;;14.33;67.65
57668;BME280;43499;52.366;12.912;2022-07-15T04:15:54;101537.72;;;14.41;67.41
57668;BME280;43499;52.366;12.912;2022-07-15T04:16:55;101536.22;;;14.45;67.07
57668;BME280;43499;52.366;12.912;2022-07-15T04:17:57;101535.84;;;14.40;67.18
57668;BME280;43499;52.366;12.912;2022-07-15T04:18:58;101538.66;;;14.54;67.13
57668;BME280;43499;52.366;12.912;2022-07-15T04:20:01;101540.28;;;14.63;66.85
57668;BME280;43499;52.366;12.912;2022-07-15T04:21:02;101547.06;;;14.60;66.65
57668;BME280;43499;52.366;12.912;2022-07-15T04:22:05;101545.81;;;14.66;66.58
57668;BME280;43499;52.366;12.912;2022-07-15T04:23:06;101542.56;;;14.47;67.05
57668;BME280;43499;52.366;12.912;2022-07-15T04:24:07;101542.47;;;14.57;66.46
57668;BME280;43499;52.366;12.912;2022-07-15T04:25:11;101545.81;;;14.66;66.76
57668;BME280;43499;52.366;12.912;2022-07-15T04:26:12;101546.91;;;14.80;66.40
57668;BME280;43499;52.366;12.912;2022-07-15T04:27:14;101539.94;;;14.93;65.45
57668;BME280;43499;52.366;12.912;2022-07-15T04:28:16;101545.47;;;15.08;65.50
57668;BME280;43499;52.366;12.912;2022-07-15T04:29:18;101531.44;;;15.21;64.81
57668;BME280;43499;52.366;12.912;2022-07-15T04:30:19;101537.66;;;15.33;64.32
57668;BME280;43499;52.366;12.912;2022-07-15T04:31:20;101538.69;;;15.47;63.98
57668;BME280;43499;52.366;12.912;2022-07-15T04:32:21;101534.75;;;15.54;63.49
57668;BME280;43499;52.366;12.912;2022-07-15T04:33:23;101539.69;;;15.61;63.38
57668;BME280;43499;52.366;12.912;2022-07-15T04:34:24;101537.38;;;15.66;63.63
57668;BME280;43499;52.366;12.912;2022-07-15T04:35:26;101546.16;;;15.53;63.22
57668;BME280;43499;52.366;12.912;2022-07-15T04:36:27;101537.66;;;15.21;64.15
57668;BME280;43499;52.366;12.912;2022-07-15T04:37:29;101545.03;;;15.49;63.68
57668;BME280;43499;52.366;12.912;2022-07-15T04:38:30;101550.97;;;15.70;63.49
57668;BME280;43499;52.366;12.912;2022-07-15T04:39:32;101539.69;;;15.61;62.79
57668;BME280;43499;52.366;12.912;2022-07-15T04:40:34;101546.41;;;15.56;62.90
57668;BME280;43499;52.366;12.912;2022-07-15T04:41:36;101550.41;;;15.74;62.59
57668;BME280;43499;52.366;12.912;2022-07-15T04:42:37;101548.22;;;15.93;62.17
57668;BME280;43499;52.366;12.912;2022-07-15T04:43:41;101548.53;;;16.09;61.64
57668;BME280;43499;52.366;12.912;2022-07-15T04:44:42;101547.66;;;16.22;61.48
57668;BME280;43499;52.366;12.912;2022-07-15T04:45:44;101542.88;;;16.04;61.52
57668;BME280;43499;52.366;12.912;2022-07-15T04:46:45;101548.22;;;15.93;61.92
57668;BME280;43499;52.366;12.912;2022-07-15T04:47:47;101543.00;;;15.94;62.10
57668;BME280;43499;52.366;12.912;2022-07-15T04:48:48;101544.19;;;15.86;62.08
57668;BME280;43499;52.366;12.912;2022-07-15T04:50:08;101547.97;;;15.78;61.62
57668;BME280;43499;52.366;12.912;2022-07-15T04:51:27;101541.16;;;15.81;61.61
57668;BME280;43499;52.366;12.912;2022-07-15T04:52:29;101543.91;;;15.83;61.89
57668;BME280;43499;52.366;12.912;2022-07-15T04:53:31;101543.38;;;15.75;62.00
57668;BME280;43499;52.366;12.912;2022-07-15T04:54:33;101548.88;;;15.78;62.40
57668;BME280;43499;52.366;12.912;2022-07-15T04:55:34;101541.16;;;15.81;62.54
57668;BME280;43499;52.366;12.912;2022-07-15T04:56:36;101547.38;;;15.82;61.74
57668;BME280;43499;52.366;12.912;2022-07-15T04:57:38;101546.84;;;15.74;62.26
57668;BME280;43499;52.366;12.912;2022-07-15T04:58:41;101540.25;;;15.81;62.24
57668;BME280;43499;52.366;12.912;2022-07-15T04:59:42;101538.53;;;15.81;61.49
57668;BME280;43499;52.366;12.912;2022-07-15T05:00:45;101543.91;;;15.83;61.64
57668;BME280;43499;52.366;12.912;2022-07-15T05:01:46;101539.31;;;15.80;61.58
57668;BME280;43499;52.366;12.912;2022-07-15T05:02:49;101545.13;;;15.63;61.70
57668;BME280;43499;52.366;12.912;2022-07-15T05:03:50;101548.72;;;15.51;62.84
57668;BME280;43499;52.366;12.912;2022-07-15T05:04:51;101548.44;;;15.60;63.07
57668;BME280;43499;52.366;12.912;2022-07-15T05:05:52;101547.06;;;15.65;62.64
57668;BME280;43499;52.366;12.912;2022-07-15T05:06:54;101544.88;;;15.71;62.49
57668;BME280;43499;52.366;12.912;2022-07-15T05:07:55;101550.88;;;15.69;62.26
57668;BME280;43499;52.366;12.912;2022-07-15T05:08:57;101542.91;;;15.69;62.67
57668;BME280;43499;52.366;12.912;2022-07-15T05:09:59;101546.28;;;15.66;62.69
57668;BME280;43499;52.366;12.912;2022-07-15T05:11:00;101547.84;;;15.76;62.70
57668;BME280;43499;52.366;12.912;2022-07-15T05:12:02;101550.31;;;15.73;62.78
57668;BME280;43499;52.366;12.912;2022-07-15T05:13:04;101550.78;;;15.67;62.72
57668;BME280;43499;52.366;12.912;2022-07-15T05:14:07;101549.81;;;15.67;62.62
57668;BME280;43499;52.366;12.912;2022-07-15T05:15:09;101549.97;;;15.68;62.86
57668;BME280;43499;52.366;12.912;2022-07-15T05:16:11;101558.69;;;15.79;62.30
57668;BME280;43499;52.366;12.912;2022-07-15T05:17:12;101561.13;;;15.88;62.05
57668;BME280;43499;52.366;12.912;2022-07-15T05:18:14;101566.88;;;15.82;62.08
57668;BME280;43499;52.366;12.912;2022-07-15T05:19:15;101562.66;;;15.84;62.31
57668;BME280;43499;52.366;12.912;2022-07-15T05:20:17;101564.03;;;15.91;62.24
57668;BME280;43499;52.366;12.912;2022-07-15T05:21:17;101561.81;;;15.73;62.28
57668;BME280;43499;52.366;12.912;2022-07-15T05:22:20;101575.41;;;15.78;62.19
57668;BME280;43499;52.366;12.912;2022-07-15T05:23:21;101570.22;;;15.80;61.69
57668;BME280;43499;52.366;12.912;2022-07-15T05:24:23;101565.72;;;15.79;62.22